Time;durP1;ratioP1;P1;durP2;ratioP2;P2;SDS_P1;SDS_P2;PMS_P1;PMS_P2;Temp;Humidity;BMP_temperature;BMP_pressure;BME280_temperature;BME280_humidity;BME280_pressure;Samples;Min_cycle;Max_cycle;Signal;HPM_P1;HPM_P2
2021/03/10 00:00:56;;;;;;;13.48;3.30;;;-0.20;52.80;;;;;;5027981;28;19909;-70
2021/03/10 00:03:21;;;;;;;;;;;-0.30;52.90;;;;;;5027414;28;20041;-70
2021/03/10 00:05:47;;;;;;;22.85;7.88;;;-0.30;53.40;;;;;;5027570;28;19909;-70
2021/03/10 00:08:13;;;;;;;;;;;-0.40;53.80;;;;;;5027402;28;20025;-70
2021/03/10 00:10:38;;;;;;;18.58;7.43;;;-0.50;55.10;;;;;;5026977;28;19916;-70
2021/03/10 00:13:04;;;;;;;;;;;-0.50;55.70;;;;;;5028452;28;20087;-70
2021/03/10 00:15:30;;;;;;;19.73;5.93;;;-0.70;56.00;;;;;;5028276;28;19913;-71
2021/03/10 00:17:56;;;;;;;;;;;-0.70;56.10;;;;;;5028686;28;20113;-71
2021/03/10 00:20:21;;;;;;;13.70;4.75;;;-0.80;56.50;;;;;;5027646;28;20003;-70
2021/03/10 00:22:48;;;;;;;;;;;-0.90;56.60;;;;;;5028382;28;20040;-68
2021/03/10 00:25:13;;;;;;;11.38;4.43;;;-0.90;57.00;;;;;;5027487;28;20007;-70
2021/03/10 00:27:40;;;;;;;;;;;-1.00;57.20;;;;;;5026686;28;20493;-70
2021/03/10 00:30:08;;;;;;;9.75;3.90;;;-1.00;57.60;;;;;;5027837;28;19908;-70
2021/03/10 00:32:36;;;;;;;13.02;5.60;;;-1.00;57.50;;;;;;5027508;28;20036;-70
2021/03/10 00:35:02;;;;;;;10.35;4.20;;;-1.10;57.70;;;;;;5026597;28;20041;-71
2021/03/10 00:37:28;;;;;;;9.68;3.85;;;-1.10;57.50;;;;;;5027678;28;20431;-70
2021/03/10 00:39:54;;;;;;;13.00;4.85;;;-1.10;57.30;;;;;;5027215;28;20405;-70
2021/03/10 00:42:20;;;;;;;;;;;-1.10;57.60;;;;;;5027983;28;20030;-70
2021/03/10 00:44:46;;;;;;;20.25;8.15;;;-1.10;58.20;;;;;;5026939;28;20068;-70
2021/03/10 00:47:12;;;;;;;;;;;-1.20;57.80;;;;;;5026280;28;20059;-70
2021/03/10 00:49:38;;;;;;;22.40;8.80;;;-1.20;58.20;;;;;;5027185;28;19913;-70
2021/03/10 00:52:04;;;;;;;19.55;7.68;;;-1.20;58.10;;;;;;5027330;28;20116;-70
2021/03/10 00:54:30;;;;;;;;;;;-1.20;58.10;;;;;;5027811;28;20112;-70
2021/03/10 00:56:55;;;;;;;12.65;4.50;;;-1.20;57.40;;;;;;5026578;28;20388;-70
2021/03/10 00:59:21;;;;;;;;;;;-1.20;57.20;;;;;;5027723;28;20033;-71
2021/03/10 01:01:46;;;;;;;9.18;3.53;;;-1.10;57.10;;;;;;5026798;28;19909;-70
2021/03/10 01:04:12;;;;;;;;;;;-1.10;56.40;;;;;;5027307;28;20048;-70
2021/03/10 01:06:38;;;;;;;8.40;2.95;;;-1.00;55.90;;;;;;5026779;28;19913;-71
2021/03/10 01:09:06;;;;;;;;;;;-0.90;55.70;;;;;;5027480;28;20027;-70
2021/03/10 01:11:32;;;;;;;4.88;2.05;;;-0.90;55.60;;;;;;5026896;28;19909;-71
2021/03/10 01:13:58;;;;;;;;;;;-0.80;55.50;;;;;;5027016;28;20025;-71
2021/03/10 01:16:24;;;;;;;6.80;2.53;;;-0.90;55.50;;;;;;5025590;28;19909;-70
2021/03/10 01:18:50;;;;;;;;;;;-0.90;55.20;;;;;;5026814;28;20453;-70
2021/03/10 01:21:16;;;;;;;7.97;3.63;;;-0.90;55.40;;;;;;5025371;28;19909;-69
2021/03/10 01:23:41;;;;;;;;;;;-0.90;55.60;;;;;;5025509;28;20075;-70
2021/03/10 01:26:07;;;;;;;10.82;2.83;;;-0.90;56.00;;;;;;5025523;28;20444;-71
2021/03/10 01:28:32;;;;;;;;;;;-1.00;56.10;;;;;;5026847;28;20125;-70
2021/03/10 01:30:58;;;;;;;6.30;2.88;;;-1.10;56.60;;;;;;5026446;28;20780;-69
2021/03/10 01:33:24;;;;;;;;;;;-1.10;56.90;;;;;;5026788;28;20037;-70
2021/03/10 01:35:49;;;;;;;10.07;3.17;;;-1.10;57.00;;;;;;5025583;28;19948;-70
2021/03/10 01:38:15;;;;;;;;;;;-1.10;57.10;;;;;;5026679;28;20029;-70
2021/03/10 01:40:40;;;;;;;11.05;5.15;;;-1.20;57.70;;;;;;5026241;28;19927;-69
2021/03/10 01:43:06;;;;;;;;;;;-1.20;58.20;;;;;;5026695;28;20117;-71
2021/03/10 01:45:34;;;;;;;14.20;6.60;;;-1.30;58.70;;;;;;5026408;28;19905;-70
2021/03/10 01:48:01;;;;;;;10.25;4.60;;;-1.40;59.60;;;;;;5024167;28;20060;-70
2021/03/10 01:50:28;;;;;;;11.38;4.40;;;-1.50;60.00;;;;;;5024820;28;20056;-70
2021/03/10 01:52:55;;;;;;;11.55;4.68;;;-1.60;60.20;;;;;;5024611;28;20116;-71
2021/03/10 01:55:22;;;;;;;11.27;3.97;;;-1.60;60.40;;;;;;5026479;28;20041;-70
2021/03/10 01:57:48;;;;;;;9.68;3.63;;;-1.60;60.10;;;;;;5024650;28;20026;-71
2021/03/10 02:00:14;;;;;;;;;;;-1.60;59.80;;;;;;5026633;28;20034;-70
2021/03/10 02:02:40;;;;;;;7.30;3.10;;;-1.60;60.20;;;;;;5025454;28;19909;-69
2021/03/10 02:05:06;;;;;;;;;;;-1.70;60.10;;;;;;5026613;28;20030;-70
2021/03/10 02:07:49;;;;;;;6.78;3.30;;;-1.70;60.20;;;;;;5025861;28;19909;-70
2021/03/10 02:10:19;;;;;;;11.70;3.28;;;-1.80;60.40;;;;;;5025261;28;20025;-70
2021/03/10 02:12:48;;;;;;;7.50;2.85;;;-1.90;61.00;;;;;;5024377;28;20033;-69
2021/03/10 02:15:35;;;;;;;9.38;3.30;;;-1.90;61.10;;;;;;5025975;28;20465;-70
2021/03/10 02:18:09;;;;;;;10.75;3.78;;;-1.90;62.00;;;;;;5024950;28;20033;-70
2021/03/10 02:20:45;;;;;;;9.35;3.50;;;-2.00;61.80;;;;;;5024839;28;20033;-69
2021/03/10 02:23:23;;;;;;;8.05;3.33;;;-2.00;62.10;;;;;;5026234;28;20024;-70
2021/03/10 02:26:01;;;;;;;9.85;4.13;;;-2.10;62.00;;;;;;5026002;28;20502;-70
2021/03/10 02:28:28;;;;;;;11.63;4.57;;;-2.00;62.00;;;;;;5025728;28;20525;-69
2021/03/10 02:30:56;;;;;;;11.35;3.60;;;-2.00;61.90;;;;;;5025708;28;20029;-70
2021/03/10 02:33:27;;;;;;;8.55;3.13;;;-2.10;61.90;;;;;;5024265;28;20116;-70
2021/03/10 02:36:05;;;;;;;11.27;2.75;;;-2.10;61.80;;;;;;5026040;28;20258;-70
2021/03/10 02:38:32;;;;;;;8.77;3.25;;;-2.00;61.50;;;;;;5025589;28;20117;-69
2021/03/10 02:40:58;;;;;;;10.35;3.72;;;-2.00;61.30;;;;;;5025861;28;20031;-70
2021/03/10 02:43:25;;;;;;;14.18;4.80;;;-1.90;61.10;;;;;;5025670;28;20025;-67
2021/03/10 02:45:52;;;;;;;10.25;3.88;;;-1.80;60.60;;;;;;5026033;28;20213;-70
2021/03/10 02:48:18;;;;;;;8.65;3.72;;;-1.80;60.40;;;;;;5023770;28;20072;-70
2021/03/10 02:50:46;;;;;;;7.45;2.97;;;-1.80;60.30;;;;;;5025561;28;20088;-69
2021/03/10 02:53:12;;;;;;;7.90;3.10;;;-1.80;60.50;;;;;;5025799;28;20030;-70
2021/03/10 02:55:41;;;;;;;7.55;2.80;;;-1.90;61.10;;;;;;5024119;28;20033;-69
2021/03/10 02:58:11;;;;;;;12.02;3.28;;;-2.00;61.70;;;;;;5025497;28;20068;-70
2021/03/10 03:00:38;;;;;;;10.88;3.13;;;-2.10;62.10;;;;;;5025920;28;20508;-71
2021/03/10 03:03:04;;;;;;;8.80;2.92;;;-2.10;62.20;;;;;;5025271;28;20024;-69
2021/03/10 03:05:29;;;;;;;;;;;-2.10;62.30;;;;;;5026038;28;20021;-69
2021/03/10 03:07:56;;;;;;;12.40;3.03;;;-2.10;62.20;;;;;;5025825;28;19913;-70
2021/03/10 03:10:28;;;;;;;15.90;3.53;;;-2.10;62.40;;;;;;5025696;28;20550;-69
2021/03/10 03:12:55;;;;;;;10.70;3.08;;;-2.20;62.60;;;;;;5025307;28;20057;-70
2021/03/10 03:15:24;;;;;;;9.25;3.42;;;-2.20;62.80;;;;;;5025254;28;20196;-69
2021/03/10 03:17:51;;;;;;;10.10;2.83;;;-2.20;63.00;;;;;;5025397;28;20383;-70
2021/03/10 03:20:19;;;;;;;7.13;2.92;;;-2.20;63.10;;;;;;5024339;28;20083;-70
2021/03/10 03:22:53;;;;;;;6.15;2.55;;;-2.20;63.30;;;;;;5028432;28;20086;-70
2021/03/10 03:25:22;;;;;;;12.70;3.15;;;-2.20;63.40;;;;;;5028725;28;20104;-69
2021/03/10 03:27:54;;;;;;;7.45;3.22;;;-2.10;63.70;;;;;;5027277;28;20033;-70
2021/03/10 03:30:21;;;;;;;13.63;3.35;;;-2.10;63.80;;;;;;5029054;28;20080;-70
2021/03/10 03:32:47;;;;;;;10.73;3.25;;;-2.10;63.40;;;;;;5026901;28;20036;-69
2021/03/10 03:35:16;;;;;;;13.05;4.45;;;-2.10;63.50;;;;;;5027384;28;20041;-70
2021/03/10 03:37:44;;;;;;;11.05;3.38;;;-2.10;63.30;;;;;;5028866;28;20133;-70
2021/03/10 03:40:11;;;;;;;10.32;2.97;;;-2.10;63.30;;;;;;5028821;28;20075;-69
2021/03/10 03:42:37;;;;;;;7.68;2.75;;;-2.00;63.10;;;;;;5028816;28;20022;-70
2021/03/10 03:45:04;;;;;;;7.40;2.45;;;-1.90;63.00;;;;;;5028490;28;20037;-70
2021/03/10 03:47:31;;;;;;;8.50;3.95;;;-1.90;62.80;;;;;;5026339;28;20041;-70
2021/03/10 03:49:56;;;;;;;10.43;3.63;;;-1.80;62.90;;;;;;5027273;28;20044;-69
2021/03/10 03:52:22;;;;;;;;;;;-1.80;62.80;;;;;;5028720;28;20033;-69
2021/03/10 03:54:47;;;;;;;10.45;3.00;;;-1.80;62.80;;;;;;5027178;28;20401;-70
2021/03/10 03:57:13;;;;;;;;;;;-1.80;62.90;;;;;;5028840;28;20439;-70
2021/03/10 03:59:38;;;;;;;21.05;5.68;;;-1.70;63.30;;;;;;5028261;28;19912;-70
2021/03/10 04:02:04;;;;;;;;;;;-1.70;63.20;;;;;;5027273;28;20029;-69
2021/03/10 04:04:30;;;;;;;13.57;5.25;;;-1.70;63.00;;;;;;5027887;28;19915;-69
2021/03/10 04:06:55;;;;;;;;;;;-1.70;63.10;;;;;;5027216;28;20481;-69
2021/03/10 04:09:21;;;;;;;12.98;5.32;;;-1.70;63.30;;;;;;5027937;28;20378;-69
2021/03/10 04:11:47;;;;;;;;;;;-1.70;63.10;;;;;;5028691;28;20052;-69
2021/03/10 04:14:14;;;;;;;12.30;4.15;;;-1.70;62.90;;;;;;5028096;28;19975;-70
2021/03/10 04:16:40;;;;;;;21.42;3.95;;;-1.60;62.60;;;;;;5027349;28;20029;-70
2021/03/10 04:19:05;;;;;;;;;;;-1.60;62.20;;;;;;5027107;28;20041;-69
2021/03/10 04:21:31;;;;;;;9.38;3.28;;;-1.50;62.00;;;;;;5027841;28;19995;-70
2021/03/10 04:23:57;;;;;;;;;;;-1.50;61.90;;;;;;5028426;28;20040;-70
2021/03/10 04:26:26;;;;;;;8.57;2.47;;;-1.60;62.20;;;;;;5027902;28;19913;-70
2021/03/10 04:28:52;;;;;;;7.75;3.88;;;-1.60;62.50;;;;;;5027675;28;20080;-69
2021/03/10 04:31:36;;;;;;;;;;;-1.50;62.90;;;;;;5026519;28;20501;-70
2021/03/10 04:34:02;;;;;;;19.52;9.00;;;-1.60;63.00;;;;;;5027753;28;20267;-70
2021/03/10 04:36:27;;;;;;;;;;;-1.60;63.10;;;;;;5028031;28;20029;-70
2021/03/10 04:38:53;;;;;;;21.55;9.00;;;-1.60;63.50;;;;;;5026220;28;20378;-70
2021/03/10 04:41:18;;;;;;;;;;;-1.60;63.30;;;;;;5026582;28;20037;-70
2021/03/10 04:43:44;;;;;;;17.52;6.95;;;-1.60;63.20;;;;;;5027235;28;20342;-70
2021/03/10 04:46:10;;;;;;;;;;;-1.50;63.00;;;;;;5027606;28;20075;-69
2021/03/10 04:48:35;;;;;;;16.42;5.90;;;-1.50;63.50;;;;;;5026931;28;19921;-69
2021/03/10 04:51:01;;;;;;;;;;;-1.40;63.20;;;;;;5027943;28;20112;-69
2021/03/10 04:53:26;;;;;;;16.15;5.63;;;-1.40;63.20;;;;;;5027274;28;20381;-70
2021/03/10 04:55:52;;;;;;;;;;;-1.40;62.50;;;;;;5027801;28;20038;-69
2021/03/10 04:58:17;;;;;;;32.38;11.65;;;-1.40;62.50;;;;;;5026956;28;19912;-69
2021/03/10 05:00:43;;;;;;;;;;;-1.30;62.70;;;;;;5027528;28;20479;-70
2021/03/10 05:03:09;;;;;;;40.25;16.83;;;-1.30;63.00;;;;;;5027249;28;19916;-69
2021/03/10 05:05:34;;;;;;;;;;;-1.30;63.00;;;;;;5027464;28;20049;-69
2021/03/10 05:08:00;;;;;;;26.52;10.38;;;-1.30;63.20;;;;;;5026741;28;19909;-70
2021/03/10 05:10:25;;;;;;;;;;;-1.20;63.10;;;;;;5026291;28;20036;-69
2021/03/10 05:12:51;;;;;;;20.17;6.80;;;-1.20;62.90;;;;;;5025563;28;20385;-69
2021/03/10 05:15:16;;;;;;;;;;;-1.10;62.50;;;;;;5027319;28;20041;-70
2021/03/10 05:17:42;;;;;;;25.00;8.50;;;-1.10;62.30;;;;;;5026321;28;19912;-70
2021/03/10 05:20:09;;;;;;;20.35;9.52;;;-1.00;61.80;;;;;;5025645;28;20060;-70
2021/03/10 05:22:35;;;;;;;21.77;9.68;;;-1.00;61.90;;;;;;5026480;28;20061;-70
2021/03/10 05:25:01;;;;;;;;;;;-0.90;62.20;;;;;;5025630;28;20095;-70
2021/03/10 05:27:31;;;;;;;28.52;11.02;;;-0.90;62.10;;;;;;5025391;28;19920;-70
2021/03/10 05:29:58;;;;;;;29.90;10.15;;;-1.00;62.90;;;;;;5026691;28;20029;-70
2021/03/10 05:32:24;;;;;;;25.75;11.25;;;-0.90;63.60;;;;;;5026089;28;20063;-70
2021/03/10 05:34:49;;;;;;;;;;;-0.90;64.70;;;;;;5026780;28;20065;-70
2021/03/10 05:37:15;;;;;;;44.33;15.68;;;-1.00;64.50;;;;;;5024551;28;19954;-70
2021/03/10 05:39:40;;;;;;;;;;;-1.00;64.40;;;;;;5027077;28;20072;-70
2021/03/10 05:42:06;;;;;;;32.05;13.60;;;-0.90;64.50;;;;;;5025177;28;20362;-70
2021/03/10 05:44:32;;;;;;;;;;;-0.90;64.30;;;;;;5026069;28;20037;-70
2021/03/10 05:46:57;;;;;;;33.08;12.35;;;-0.90;64.10;;;;;;5025094;28;19979;-68
2021/03/10 05:49:23;;;;;;;;;;;-0.90;64.10;;;;;;5025566;28;20141;-70
2021/03/10 05:51:52;;;;;;;38.10;12.60;;;-0.80;63.70;;;;;;5026264;28;19909;-70
2021/03/10 05:54:19;;;;;;;51.08;17.35;;;-0.80;63.50;;;;;;5024580;28;20182;-70
2021/03/10 05:56:46;;;;;;;41.80;16.88;;;-0.70;63.50;;;;;;5025991;28;20022;-69
2021/03/10 05:59:12;;;;;;;;;;;-0.60;63.30;;;;;;5026134;28;20033;-68
2021/03/10 06:01:37;;;;;;;64.13;23.08;;;-0.60;64.10;;;;;;5025119;28;19905;-71
2021/03/10 06:04:04;;;;;;;;;;;-0.50;64.10;;;;;;5024894;28;20395;-70
2021/03/10 06:06:40;;;;;;;74.90;27.85;;;-0.40;64.40;;;;;;5024494;28;19931;-70
2021/03/10 06:09:17;;;;;;;74.60;29.00;;;-0.30;64.00;;;;;;5026115;28;20437;-70
2021/03/10 06:12:01;;;;;;;73.57;29.52;;;-0.20;63.70;;;;;;5024943;28;20037;-69
2021/03/10 06:14:27;;;;;;;59.28;21.00;;;-0.10;63.80;;;;;;5024771;28;20043;-69
2021/03/10 06:17:05;;;;;;;51.95;17.95;;;0.00;62.60;;;;;;5025474;28;20025;-70
2021/03/10 06:19:44;;;;;;;36.05;15.15;;;0.10;62.40;;;;;;5026204;28;20108;-70
2021/03/10 06:22:11;;;;;;;29.67;13.05;;;0.20;62.80;;;;;;5026425;28;20030;-68
2021/03/10 06:24:37;;;;;;;30.33;11.95;;;0.30;61.40;;;;;;5026064;28;20045;-70
2021/03/10 06:27:03;;;;;;;;;;;0.40;60.10;;;;;;5025786;28;20025;-70
2021/03/10 06:29:28;;;;;;;42.15;11.75;;;0.50;60.40;;;;;;5025915;28;19909;-70
2021/03/10 06:32:06;;;;;;;33.97;11.68;;;0.70;59.60;;;;;;5024229;28;20052;-69
2021/03/10 06:34:45;;;;;;;43.38;14.70;;;0.80;58.90;;;;;;5025890;28;20034;-70
2021/03/10 06:37:11;;;;;;;38.45;15.88;;;1.00;59.00;;;;;;5023980;28;20036;-70
2021/03/10 06:39:38;;;;;;;42.83;15.40;;;1.20;58.20;;;;;;5024090;28;20041;-70
2021/03/10 06:42:14;;;;;;;44.75;14.52;;;1.40;57.10;;;;;;5025835;28;20033;-70
2021/03/10 06:44:53;;;;;;;45.90;16.83;;;1.60;56.10;;;;;;5031495;28;20039;-71
2021/03/10 06:47:19;;;;;;;75.57;29.83;;;1.80;55.10;;;;;;5043226;28;20069;-71
2021/03/10 06:49:54;;;;;;;60.08;25.63;;;2.10;55.70;;;;;;5044365;28;20035;-70
2021/03/10 06:52:20;;;;;;;78.85;44.05;;;2.40;53.60;;;;;;5045296;28;20055;-71
2021/03/10 06:55:00;;;;;;;117.80;65.93;;;2.70;51.80;;;;;;5045785;28;20081;-72
2021/03/10 06:57:27;;;;;;;84.13;38.72;;;2.90;50.50;;;;;;5049546;28;20021;-69
2021/03/10 06:59:57;;;;;;;41.78;18.65;;;3.10;51.20;;;;;;5048511;28;20068;-70
2021/03/10 07:02:23;;;;;;;51.65;21.88;;;3.30;49.70;;;;;;5049129;28;20029;-70
2021/03/10 07:04:56;;;;;;;82.13;35.88;;;3.80;49.90;;;;;;5047493;28;20029;-70
2021/03/10 07:07:23;;;;;;;51.55;23.67;;;4.60;50.40;;;;;;5048186;28;20447;-70
2021/03/10 07:09:48;;;;;;;35.83;14.75;;;4.90;46.10;;;;;;5047434;28;20403;-70
2021/03/10 07:12:16;;;;;;;40.70;19.60;;;5.30;43.80;;;;;;5044927;28;20029;-70
2021/03/10 07:14:42;;;;;;;34.13;16.00;;;5.80;43.00;;;;;;5028478;28;20045;-71
2021/03/10 07:17:11;;;;;;;37.53;16.52;;;6.10;41.90;;;;;;5027922;28;20029;-70
2021/03/10 07:19:37;;;;;;;27.75;13.48;;;6.30;39.60;;;;;;5028705;28;20589;-71
2021/03/10 07:22:05;;;;;;;27.00;11.48;;;6.10;38.80;;;;;;5028893;28;20076;-71
2021/03/10 07:24:56;;;;;;;17.75;8.45;;;6.40;39.40;;;;;;5028672;28;20032;-71
2021/03/10 07:27:23;;;;;;;19.42;7.75;;;6.80;38.40;;;;;;5028874;28;20017;-70
2021/03/10 07:29:57;;;;;;;8.82;3.72;;;7.20;37.00;;;;;;5027881;28;20041;-71
2021/03/10 07:32:24;;;;;;;7.75;3.22;;;7.40;35.90;;;;;;5027564;28;20051;-71
2021/03/10 07:35:06;;;;;;;8.80;3.15;;;7.50;35.40;;;;;;5026999;28;20565;-71
2021/03/10 07:37:33;;;;;;;6.38;2.35;;;7.70;35.40;;;;;;5028318;28;20029;-70
2021/03/10 07:40:10;;;;;;;7.95;2.60;;;7.70;33.50;;;;;;5027421;28;20391;-71
2021/03/10 07:42:57;;;;;;;9.07;3.03;;;7.70;32.30;;;;;;5027515;28;20072;-71
2021/03/10 07:45:25;;;;;;;;;;;7.80;32.90;;;;;;5028829;28;20029;-71
2021/03/10 07:47:56;;;;;;;7.22;3.53;;;7.70;33.00;;;;;;5026704;28;19917;-71
2021/03/10 07:50:24;;;;;;;8.55;3.30;;;7.40;33.50;;;;;;5028697;28;20033;-70
2021/03/10 07:52:54;;;;;;;12.60;3.15;;;7.40;34.00;;;;;;5026699;28;20597;-71
2021/03/10 07:55:21;;;;;;;7.50;2.85;;;7.40;32.90;;;;;;5027146;28;20045;-70
2021/03/10 07:57:54;;;;;;;7.97;2.72;;;7.30;33.50;;;;;;5028046;28;20033;-69
2021/03/10 08:00:32;;;;;;;10.18;2.85;;;7.30;33.20;;;;;;5026182;28;20040;-70
2021/03/10 08:02:58;;;;;;;7.00;2.88;;;7.30;32.50;;;;;;5027811;28;20021;-70
2021/03/10 08:05:25;;;;;;;9.68;3.38;;;7.20;32.30;;;;;;5026952;28;20090;-70
2021/03/10 08:08:12;;;;;;;13.35;4.30;;;7.30;32.80;;;;;;5026147;28;20033;-70
2021/03/10 08:10:39;;;;;;;9.65;4.07;;;8.00;32.00;;;;;;5027014;28;20029;-71
2021/03/10 08:13:20;;;;;;;9.15;3.70;;;8.70;30.70;;;;;;5028006;28;20041;-69
2021/03/10 08:15:47;;;;;;;9.18;3.05;;;8.80;30.10;;;;;;5026688;28;20033;-70
2021/03/10 08:18:18;;;;;;;5.97;3.15;;;9.30;29.80;;;;;;5028198;28;20072;-71
2021/03/10 08:20:44;;;;;;;6.95;2.80;;;10.10;29.00;;;;;;5027948;28;20413;-71
2021/03/10 08:23:10;;;;;;;;;;;10.80;27.40;;;;;;5027188;28;20112;-71
2021/03/10 08:25:35;;;;;;;6.20;3.22;;;11.10;27.20;;;;;;5027831;28;19936;-71
2021/03/10 08:28:14;;;;;;;;;;;11.30;27.20;;;;;;5027958;28;20021;-71
2021/03/10 08:30:40;;;;;;;11.77;3.92;;;11.90;26.50;;;;;;5027285;28;19905;-71
2021/03/10 08:33:07;;;;;;;7.55;2.90;;;12.10;26.30;;;;;;5027534;28;20059;-71
2021/03/10 08:35:33;;;;;;;6.05;2.85;;;12.40;25.30;;;;;;5026280;28;20049;-71
2021/03/10 08:38:02;;;;;;;7.03;3.35;;;12.60;25.50;;;;;;5027769;28;20041;-71
2021/03/10 08:40:29;;;;;;;12.90;3.08;;;13.00;24.70;;;;;;5027099;28;20021;-72
2021/03/10 08:42:58;;;;;;;6.75;3.33;;;13.10;24.90;;;;;;5026328;28;20564;-72
2021/03/10 08:45:28;;;;;;;8.50;3.17;;;13.20;24.80;;;;;;5025809;28;20030;-72
2021/03/10 08:48:05;;;;;;;8.73;3.30;;;13.00;25.00;;;;;;5025790;28;20045;-72
2021/03/10 08:50:34;;;;;;;9.80;3.17;;;13.20;25.30;;;;;;5027142;28;20043;-71
2021/03/10 08:53:00;;;;;;;8.68;4.25;;;13.30;25.10;;;;;;5027580;28;20550;-72
2021/03/10 08:55:26;;;;;;;;;;;13.70;24.30;;;;;;5027367;28;20084;-72
2021/03/10 08:57:57;;;;;;;6.43;3.63;;;13.40;24.30;;;;;;5026020;28;19935;-72
2021/03/10 09:00:26;;;;;;;5.70;3.35;;;13.10;24.40;;;;;;5027190;28;20071;-71
2021/03/10 09:02:52;;;;;;;5.40;3.10;;;13.20;24.50;;;;;;5025341;28;20029;-71
2021/03/10 09:05:27;;;;;;;7.57;3.80;;;13.30;24.90;;;;;;5027146;28;20148;-71
2021/03/10 09:07:54;;;;;;;6.45;3.60;;;13.30;25.00;;;;;;5026832;28;20446;-72
2021/03/10 09:10:21;;;;;;;9.25;4.95;;;13.70;24.80;;;;;;5026029;28;20040;-72
2021/03/10 09:12:49;;;;;;;8.98;3.92;;;13.90;24.40;;;;;;5025278;28;20037;-71
2021/03/10 09:15:17;;;;;;;9.50;4.35;;;14.10;24.30;;;;;;5025386;28;20120;-72
2021/03/10 09:17:43;;;;;;;10.35;4.93;;;14.20;24.30;;;;;;5026553;28;20029;-72
2021/03/10 09:20:25;;;;;;;25.80;13.73;;;14.60;24.00;;;;;;5027107;28;20454;-72
2021/03/10 09:22:51;;;;;;;9.15;4.05;;;14.70;23.70;;;;;;5026354;28;20033;-71
2021/03/10 09:25:20;;;;;;;7.78;4.15;;;14.80;23.10;;;;;;5026436;28;20025;-71
2021/03/10 09:27:46;;;;;;;12.18;6.50;;;14.50;23.00;;;;;;5026136;28;20037;-72
2021/03/10 09:30:24;;;;;;;13.48;8.13;;;14.30;23.60;;;;;;5026680;28;20420;-71
2021/03/10 09:32:49;;;;;;;309.25;191.85;;;14.20;23.40;;;;;;5026555;28;20636;-70
2021/03/10 09:35:19;;;;;;;;;;;13.60;23.80;;;;;;5026403;28;20041;-71
2021/03/10 09:37:46;;;;;;;101.07;64.03;;;13.20;24.50;;;;;;5025998;28;20035;-71
2021/03/10 09:40:13;;;;;;;93.78;54.15;;;12.90;24.70;;;;;;5024785;28;20033;-71
2021/03/10 09:42:39;;;;;;;129.63;76.70;;;12.60;25.10;;;;;;5026994;28;20025;-71
2021/03/10 09:45:05;;;;;;;;;;;12.30;25.60;;;;;;5026848;28;20033;-71
2021/03/10 09:47:31;;;;;;;57.90;37.00;;;12.20;25.70;;;;;;5030917;28;20387;-71
2021/03/10 09:49:57;;;;;;;;;;;12.10;25.90;;;;;;5031707;28;20037;-71
2021/03/10 09:52:36;;;;;;;32.70;15.13;;;11.70;26.30;;;;;;5025095;28;19908;-70
2021/03/10 09:55:03;;;;;;;33.97;21.70;;;11.50;26.70;;;;;;5025623;28;20183;-71
2021/03/10 09:57:29;;;;;;;51.83;35.42;;;11.40;27.00;;;;;;5029520;28;20086;-71
2021/03/10 09:59:57;;;;;;;;;;;11.30;27.60;;;;;;5033169;28;20045;-71
2021/03/10 10:02:24;;;;;;;22.80;15.88;;;11.30;27.50;;;;;;5025783;28;19924;-71
2021/03/10 10:04:57;;;;;;;111.70;53.38;;;11.30;27.80;;;;;;5024765;28;20132;-70
2021/03/10 10:07:24;;;;;;;43.13;23.00;;;11.50;27.60;;;;;;5025763;28;20564;-71
2021/03/10 10:09:51;;;;;;;100.50;55.67;;;11.70;27.30;;;;;;5024570;28;20032;-71
2021/03/10 10:12:16;;;;;;;38.60;23.08;;;11.80;27.50;;;;;;5032482;28;20108;-71
2021/03/10 10:14:42;;;;;;;;;;;12.00;27.40;;;;;;5035505;28;20520;-71
2021/03/10 10:17:07;;;;;;;19.55;10.77;;;12.50;27.30;;;;;;5032709;28;19917;-71
2021/03/10 10:19:33;;;;;;;;;;;12.90;27.20;;;;;;5033665;28;20515;-71
2021/03/10 10:21:59;;;;;;;21.23;12.05;;;13.60;25.90;;;;;;5032009;28;20015;-70
2021/03/10 10:24:24;;;;;;;;;;;14.10;25.30;;;;;;5035870;28;20029;-70
2021/03/10 10:26:50;;;;;;;31.58;21.20;;;14.20;24.70;;;;;;5034789;28;20393;-71
2021/03/10 10:29:15;;;;;;;;;;;13.90;25.30;;;;;;5033453;28;20456;-71
2021/03/10 10:31:41;;;;;;;53.85;33.00;;;13.60;25.10;;;;;;5029617;28;19948;-70
2021/03/10 10:34:07;;;;;;;;;;;13.00;25.60;;;;;;5030017;28;20065;-71
2021/03/10 10:36:32;;;;;;;106.72;37.72;;;12.30;26.20;;;;;;5040152;28;19916;-71
2021/03/10 10:38:58;;;;;;;;;;;11.70;27.10;;;;;;5039105;28;20083;-72
2021/03/10 10:41:23;;;;;;;187.27;113.05;;;11.30;27.20;;;;;;5046708;28;20305;-71
2021/03/10 10:43:49;;;;;;;148.63;88.45;;;10.80;27.90;;;;;;5043342;28;20074;-70
2021/03/10 10:46:14;;;;;;;;;;;10.20;28.60;;;;;;5037060;28;20064;-71
2021/03/10 10:48:40;;;;;;;98.40;65.05;;;9.80;29.50;;;;;;5039489;28;20481;-70
2021/03/10 10:51:06;;;;;;;;;;;9.50;30.00;;;;;;5036214;28;20146;-71
2021/03/10 10:53:31;;;;;;;78.95;56.58;;;9.40;30.50;;;;;;5040057;28;20061;-70
2021/03/10 10:55:57;;;;;;;15.38;9.50;;;9.30;30.60;;;;;;5035045;28;20379;-70
2021/03/10 10:58:23;;;;;;;12.98;8.60;;;9.50;28.30;;;;;;5034331;28;20352;-70
2021/03/10 11:00:48;;;;;;;;;;;9.40;28.00;;;;;;5034477;28;20040;-70
2021/03/10 11:03:14;;;;;;;25.15;16.52;;;9.30;28.10;;;;;;5036789;28;19905;-70
2021/03/10 11:05:40;;;;;;;;;;;9.50;29.20;;;;;;5038321;28;20029;-71
2021/03/10 11:08:06;;;;;;;48.92;27.27;;;9.70;29.00;;;;;;5037679;28;19952;-69
2021/03/10 11:10:31;;;;;;;;;;;9.80;28.80;;;;;;5036440;28;20079;-70
2021/03/10 11:12:57;;;;;;;45.38;25.92;;;9.90;28.40;;;;;;5035231;28;20335;-70
2021/03/10 11:15:22;;;;;;;;;;;10.00;28.80;;;;;;5038754;28;20498;-71
2021/03/10 11:17:48;;;;;;;15.95;9.65;;;9.90;29.30;;;;;;5035750;28;19909;-70
2021/03/10 11:20:14;;;;;;;296.23;140.45;;;10.00;28.80;;;;;;5035710;28;20703;-70
2021/03/10 11:22:40;;;;;;;95.15;51.50;;;9.90;28.20;;;;;;5028808;28;20025;-70
2021/03/10 11:25:06;;;;;;;;;;;10.00;27.70;;;;;;5029128;28;20405;-70
2021/03/10 11:27:32;;;;;;;12.38;8.00;;;9.90;27.50;;;;;;5046879;28;20454;-71
2021/03/10 11:29:58;;;;;;;;;;;9.90;27.50;;;;;;5049435;28;20036;-71
2021/03/10 11:32:23;;;;;;;11.88;6.43;;;9.90;26.90;;;;;;5043436;28;20437;-72
2021/03/10 11:34:49;;;;;;;13.02;6.88;;;9.90;27.80;;;;;;5038476;28;20036;-72
2021/03/10 11:37:17;;;;;;;;;;;9.60;27.90;;;;;;5035990;28;20025;-70
2021/03/10 11:39:43;;;;;;;20.55;10.10;;;9.50;28.00;;;;;;5026506;28;20324;-70
2021/03/10 11:42:08;;;;;;;;;;;9.30;28.50;;;;;;5027678;28;20126;-70
2021/03/10 11:44:34;;;;;;;11.70;7.30;;;9.10;27.50;;;;;;5028377;28;20401;-70
2021/03/10 11:47:00;;;;;;;15.10;8.10;;;8.90;27.70;;;;;;5028493;28;20116;-71
2021/03/10 11:49:26;;;;;;;39.00;16.92;;;8.80;27.70;;;;;;5028142;28;20136;-70
2021/03/10 11:51:52;;;;;;;12.40;6.28;;;8.80;27.90;;;;;;5028591;28;20072;-70
2021/03/10 11:54:18;;;;;;;;;;;8.90;26.70;;;;;;5027123;28;20076;-70
2021/03/10 11:56:44;;;;;;;56.50;20.98;;;8.80;25.90;;;;;;5027925;28;20787;-69
2021/03/10 11:59:09;;;;;;;;;;;8.80;27.30;;;;;;5028344;28;20458;-71
2021/03/10 12:01:35;;;;;;;25.42;9.77;;;8.80;27.00;;;;;;5028331;28;20301;-70
2021/03/10 12:04:00;;;;;;;;;;;8.80;27.60;;;;;;5028546;28;20037;-69
2021/03/10 12:06:27;;;;;;;18.67;8.40;;;8.70;27.40;;;;;;5027801;28;19999;-70
2021/03/10 12:08:52;;;;;;;12.05;6.40;;;8.90;27.00;;;;;;5026387;28;20049;-70
2021/03/10 12:11:18;;;;;;;82.20;29.65;;;8.90;26.80;;;;;;5026603;28;20060;-71
2021/03/10 12:13:44;;;;;;;;;;;8.80;27.00;;;;;;5028263;28;20490;-70
2021/03/10 12:16:10;;;;;;;17.67;8.70;;;8.60;26.60;;;;;;5027825;28;19924;-70
2021/03/10 12:18:39;;;;;;;;;;;8.40;27.20;;;;;;5028690;28;20108;-71
2021/03/10 12:21:06;;;;;;;14.25;7.72;;;8.30;27.80;;;;;;5027617;28;19978;-71
2021/03/10 12:23:33;;;;;;;16.52;7.32;;;8.40;28.00;;;;;;5027383;28;20061;-71
2021/03/10 12:25:59;;;;;;;13.05;7.43;;;8.40;28.00;;;;;;5027822;28;20033;-71
2021/03/10 12:28:24;;;;;;;14.55;7.18;;;8.50;27.80;;;;;;5028084;28;20103;-70
2021/03/10 12:30:50;;;;;;;18.67;8.27;;;8.50;27.60;;;;;;5027850;28;20087;-71
2021/03/10 12:33:16;;;;;;;;;;;8.50;28.40;;;;;;5027814;28;20037;-69
2021/03/10 12:35:42;;;;;;;34.92;11.82;;;8.60;29.00;;;;;;5027430;28;19922;-70
2021/03/10 12:38:08;;;;;;;51.63;13.93;;;8.70;28.70;;;;;;5027695;28;20037;-70
2021/03/10 12:40:33;;;;;;;;;;;8.80;27.50;;;;;;5029744;28;20044;-71
2021/03/10 12:42:59;;;;;;;29.88;12.23;;;8.90;27.30;;;;;;5039242;28;19919;-71
2021/03/10 12:45:24;;;;;;;19.45;8.00;;;8.90;27.20;;;;;;5047182;28;20028;-72
2021/03/10 12:47:50;;;;;;;24.02;8.85;;;9.00;28.00;;;;;;5046723;28;20080;-71
2021/03/10 12:50:16;;;;;;;29.63;10.18;;;9.10;27.50;;;;;;5047536;28;20493;-71
2021/03/10 12:52:41;;;;;;;;;;;9.10;26.80;;;;;;5047521;28;20440;-69
2021/03/10 12:55:08;;;;;;;28.90;9.98;;;9.20;26.60;;;;;;5039781;28;19925;-71
2021/03/10 12:57:33;;;;;;;24.33;7.65;;;9.20;26.50;;;;;;5034381;28;20032;-72
2021/03/10 12:59:59;;;;;;;1101.40;339.92;;;9.30;26.50;;;;;;5036149;28;20037;-70
2021/03/10 13:02:25;;;;;;;;;;;9.20;26.30;;;;;;5037771;28;20068;-70
2021/03/10 13:04:51;;;;;;;51.95;21.38;;;9.10;26.10;;;;;;5036636;28;19928;-70